Time;durP1;ratioP1;P1;durP2;ratioP2;P2;SDS_P1;SDS_P2;PMS_P1;PMS_P2;Temp;Humidity;BMP_temperature;BMP_pressure;BME280_temperature;BME280_humidity;BME280_pressure;Samples;Min_cycle;Max_cycle;Signal;HPM_P1;HPM_P2
2021/12/02 00:01:13;;;;;;;8.30;1.30;;;;;;;;;;5067413;28;20052;-77
2021/12/02 00:03:40;;;;;;;5.97;1.30;;;;;;;;;;5066086;28;20083;-77
2021/12/02 00:06:07;;;;;;;10.52;1.42;;;;;;;;;;5067614;28;20048;-78
2021/12/02 00:08:34;;;;;;;12.05;1.33;;;;;;;;;;5067840;28;20048;-77
2021/12/02 00:11:00;;;;;;;13.07;1.63;;;;;;;;;;5066842;28;20111;-77
2021/12/02 00:13:29;;;;;;;9.43;1.65;;;;;;;;;;5067634;28;20053;-78
2021/12/02 00:16:16;;;;;;;9.05;1.00;;;;;;;;;;5068097;28;20065;-78
2021/12/02 00:21:17;;;;;;;7.13;0.98;;;;;;;;;;5067245;28;20057;-78
2021/12/02 00:24:14;;;;;;;3.88;0.80;;;;;;;;;;5066017;28;20087;-78
2021/12/02 00:26:40;;;;;;;4.15;0.68;;;;;;;;;;5057289;28;20468;-78
2021/12/02 00:29:07;;;;;;;7.60;1.20;;;;;;;;;;5065470;28;20088;-78
2021/12/02 00:31:36;;;;;;;6.55;0.73;;;;;;;;;;5067446;28;20131;-78
2021/12/02 00:34:04;;;;;;;7.97;0.70;;;;;;;;;;5066407;28;20053;-78
2021/12/02 00:36:31;;;;;;;3.55;0.60;;;;;;;;;;5045703;28;20670;-78
2021/12/02 00:38:58;;;;;;;3.28;0.80;;;;;;;;;;5053218;28;20057;-78
2021/12/02 00:41:26;;;;;;;5.13;0.95;;;;;;;;;;5066430;28;20045;-77
2021/12/02 00:43:55;;;;;;;2.85;0.50;;;;;;;;;;5065898;28;20048;-77
2021/12/02 00:46:23;;;;;;;5.22;0.70;;;;;;;;;;5066248;28;20111;-77
2021/12/02 00:48:49;;;;;;;7.97;0.82;;;;;;;;;;5066648;28;20084;-77
2021/12/02 00:51:17;;;;;;;4.13;0.60;;;;;;;;;;5074793;28;20143;-77
2021/12/02 00:53:46;;;;;;;7.43;1.02;;;;;;;;;;5072281;28;20738;-77
2021/12/02 00:56:15;;;;;;;7.00;0.70;;;;;;;;;;5062323;28;20089;-77
2021/12/02 00:58:45;;;;;;;3.20;0.70;;;;;;;;;;5059597;28;20126;-77
2021/12/02 01:01:11;;;;;;;4.15;0.65;;;;;;;;;;5065550;28;20176;-77
2021/12/02 01:03:38;;;;;;;7.00;0.80;;;;;;;;;;5066489;28;20611;-77
2021/12/02 01:06:06;;;;;;;6.65;0.80;;;;;;;;;;5065782;28;20056;-77
2021/12/02 01:08:33;;;;;;;2.08;0.60;;;;;;;;;;5069291;28;20460;-77
2021/12/02 01:11:00;;;;;;;6.80;0.93;;;;;;;;;;5066537;28;20052;-77
2021/12/02 01:13:26;;;;;;;6.40;1.10;;;;;;;;;;5065699;28;20085;-77
2021/12/02 01:15:53;;;;;;;6.47;1.08;;;;;;;;;;5065605;28;20052;-78
2021/12/02 01:18:20;;;;;;;2.58;0.80;;;;;;;;;;5065409;28;20053;-78
2021/12/02 01:20:47;;;;;;;6.82;1.00;;;;;;;;;;5066227;28;20056;-78
2021/12/02 01:23:15;;;;;;;10.85;1.05;;;;;;;;;;5065373;28;20096;-78
2021/12/02 01:25:42;;;;;;;2.30;0.60;;;;;;;;;;5073850;28;20628;-78
2021/12/02 01:28:09;;;;;;;3.03;0.57;;;;;;;;;;5065203;28;20057;-78
2021/12/02 01:30:35;;;;;;;6.78;0.80;;;;;;;;;;5066284;28;20106;-78
2021/12/02 01:33:03;;;;;;;2.83;0.60;;;;;;;;;;5066145;28;20111;-78
2021/12/02 01:35:30;;;;;;;6.18;0.65;;;;;;;;;;5051347;28;20050;-78
2021/12/02 01:37:57;;;;;;;2.85;0.75;;;;;;;;;;5069375;28;20135;-77
2021/12/02 01:40:24;;;;;;;8.40;1.05;;;;;;;;;;5066718;28;20523;-78
2021/12/02 01:42:59;;;;;;;4.07;0.60;;;;;;;;;;5070762;28;20052;-78
2021/12/02 01:45:29;;;;;;;4.32;0.98;;;;;;;;;;5070343;28;20065;-78
2021/12/02 01:47:57;;;;;;;9.00;1.15;;;;;;;;;;5063628;28;20104;-78
2021/12/02 01:50:24;;;;;;;8.00;0.90;;;;;;;;;;5067939;28;20126;-78
2021/12/02 01:52:55;;;;;;;3.78;0.80;;;;;;;;;;5069882;28;20088;-78
2021/12/02 01:55:21;;;;;;;;;;;;;;;;;;5070259;28;20530;-77
2021/12/02 01:58:01;;;;;;;6.32;0.88;;;;;;;;;;5067789;28;46385;-78
2021/12/02 02:00:32;;;;;;;8.23;0.85;;;;;;;;;;5067296;28;20497;-78
2021/12/02 02:03:01;;;;;;;4.35;0.70;;;;;;;;;;5069886;28;20052;-78
2021/12/02 02:05:28;;;;;;;2.40;0.60;;;;;;;;;;5068937;28;20663;-78
2021/12/02 02:07:57;;;;;;;1.38;0.50;;;;;;;;;;5069526;28;20103;-78
2021/12/02 02:10:24;;;;;;;3.63;0.60;;;;;;;;;;5067285;28;20084;-78
2021/12/02 02:12:51;;;;;;;3.65;0.80;;;;;;;;;;5068372;28;20475;-77
2021/12/02 02:15:17;;;;;;;3.55;0.63;;;;;;;;;;5069493;28;20069;-78
2021/12/02 02:17:55;;;;;;;4.95;0.90;;;;;;;;;;5069205;28;20053;-78
2021/12/02 02:20:22;;;;;;;2.78;0.68;;;;;;;;;;5067391;28;20049;-78
2021/12/02 02:22:49;;;;;;;5.53;0.52;;;;;;;;;;5067539;28;20079;-78
2021/12/02 02:25:18;;;;;;;6.38;0.70;;;;;;;;;;5069081;28;20057;-78
2021/12/02 02:27:45;;;;;;;4.70;0.70;;;;;;;;;;5067493;28;20608;-78
2021/12/02 02:30:11;;;;;;;9.57;0.80;;;;;;;;;;5067776;28;20107;-78
2021/12/02 02:32:37;;;;;;;3.47;0.65;;;;;;;;;;5067713;28;20504;-78
2021/12/02 02:35:05;;;;;;;6.32;0.68;;;;;;;;;;5054124;28;20057;-78
2021/12/02 02:37:34;;;;;;;5.97;0.80;;;;;;;;;;5063450;28;20057;-78
2021/12/02 02:40:05;;;;;;;5.60;0.55;;;;;;;;;;5067622;28;20072;-78
2021/12/02 02:42:32;;;;;;;5.80;0.80;;;;;;;;;;5067469;28;20057;-78
2021/12/02 02:44:59;;;;;;;4.60;0.70;;;;;;;;;;5069040;28;20168;-78
2021/12/02 02:47:27;;;;;;;8.95;0.75;;;;;;;;;;5057753;28;20131;-78
2021/12/02 02:49:53;;;;;;;10.90;1.00;;;;;;;;;;5053886;28;20092;-78
2021/12/02 02:52:20;;;;;;;6.93;0.80;;;;;;;;;;5066115;28;20511;-78
2021/12/02 02:54:47;;;;;;;6.72;1.27;;;;;;;;;;5066889;28;20061;-77
2021/12/02 02:57:16;;;;;;;3.45;0.80;;;;;;;;;;5068866;28;20496;-78
2021/12/02 03:02:35;;;;;;;3.90;0.60;;;;;;;;;;5067172;28;20428;-78
2021/12/02 03:07:59;;;;;;;6.47;0.88;;;;;;;;;;5068293;28;20053;-78
2021/12/02 03:13:09;;;;;;;1.73;0.50;;;;;;;;;;5051202;28;20057;-78
2021/12/02 03:18:20;;;;;;;5.97;0.70;;;;;;;;;;5059561;28;20059;-77
2021/12/02 03:20:47;;;;;;;2.88;0.80;;;;;;;;;;5066799;28;20554;-78
2021/12/02 03:23:13;;;;;;;4.43;0.95;;;;;;;;;;5068825;28;20057;-78
2021/12/02 03:25:40;;;;;;;5.43;0.63;;;;;;;;;;5077728;28;20503;-78
2021/12/02 03:28:06;;;;;;;4.15;0.90;;;;;;;;;;5066367;28;20593;-77
2021/12/02 03:30:33;;;;;;;8.85;0.80;;;;;;;;;;5065432;28;20103;-77
2021/12/02 03:32:59;;;;;;;7.95;0.80;;;;;;;;;;5068018;28;20519;-77
2021/12/02 03:35:25;;;;;;;5.80;0.95;;;;;;;;;;5052618;28;20104;-78
2021/12/02 03:37:52;;;;;;;4.60;0.70;;;;;;;;;;5047891;28;20057;-78
2021/12/02 03:40:18;;;;;;;7.60;1.00;;;;;;;;;;5065019;28;20147;-78
2021/12/02 03:42:48;;;;;;;7.85;1.45;;;;;;;;;;5067731;28;20088;-78
2021/12/02 03:45:15;;;;;;;8.52;1.55;;;;;;;;;;5066262;28;20112;-78
2021/12/02 03:47:42;;;;;;;15.10;2.20;;;;;;;;;;5066755;28;20400;-78
2021/12/02 03:50:08;;;;;;;6.20;1.10;;;;;;;;;;5068059;28;20115;-78
2021/12/02 03:52:35;;;;;;;5.93;0.77;;;;;;;;;;5065369;28;20238;-78
2021/12/02 03:55:02;;;;;;;9.43;1.23;;;;;;;;;;5049323;28;20107;-78
2021/12/02 03:57:31;;;;;;;5.15;0.85;;;;;;;;;;5067492;28;20048;-78
2021/12/02 03:59:58;;;;;;;3.70;0.75;;;;;;;;;;5066190;28;20099;-78
2021/12/02 04:02:24;;;;;;;5.85;1.00;;;;;;;;;;5067749;28;20053;-78
2021/12/02 04:04:51;;;;;;;6.57;0.95;;;;;;;;;;5067811;28;20061;-78
2021/12/02 04:07:19;;;;;;;3.33;0.68;;;;;;;;;;5065856;28;20084;-78
2021/12/02 04:09:47;;;;;;;6.28;0.85;;;;;;;;;;5067665;28;20053;-78
2021/12/02 04:12:31;;;;;;;9.75;1.13;;;;;;;;;;5047099;28;20111;-77
2021/12/02 04:15:05;;;;;;;8.63;1.20;;;;;;;;;;5054796;28;20115;-78
2021/12/02 04:17:43;;;;;;;7.22;1.10;;;;;;;;;;5066524;28;20053;-78
2021/12/02 04:20:11;;;;;;;9.70;1.23;;;;;;;;;;5066329;28;20087;-78
2021/12/02 04:22:38;;;;;;;6.00;0.90;;;;;;;;;;5066070;28;20056;-78
2021/12/02 04:25:05;;;;;;;3.45;0.65;;;;;;;;;;5066472;28;20500;-78
2021/12/02 04:27:31;;;;;;;5.47;1.02;;;;;;;;;;5067375;28;20057;-78
2021/12/02 04:29:58;;;;;;;3.88;0.70;;;;;;;;;;5066055;28;20057;-77
2021/12/02 04:32:24;;;;;;;6.03;0.70;;;;;;;;;;5067197;28;20077;-78
2021/12/02 04:34:51;;;;;;;4.45;0.50;;;;;;;;;;5063435;28;20049;-77
2021/12/02 04:37:17;;;;;;;4.20;0.68;;;;;;;;;;5066026;28;20566;-78
2021/12/02 04:39:43;;;;;;;3.63;0.65;;;;;;;;;;5062519;28;20057;-77
2021/12/02 04:42:10;;;;;;;6.25;0.70;;;;;;;;;;5047415;28;20049;-77
2021/12/02 04:44:36;;;;;;;4.18;0.55;;;;;;;;;;5061440;28;20092;-77
2021/12/02 04:47:03;;;;;;;7.00;0.63;;;;;;;;;;5066968;28;20528;-78
2021/12/02 04:49:29;;;;;;;3.92;1.00;;;;;;;;;;5070550;28;20187;-78
2021/12/02 04:51:55;;;;;;;4.00;0.73;;;;;;;;;;5066871;28;20131;-78
2021/12/02 04:54:22;;;;;;;4.43;0.60;;;;;;;;;;5065822;28;20595;-77
2021/12/02 04:56:48;;;;;;;4.47;1.08;;;;;;;;;;5065297;28;20053;-78
2021/12/02 04:59:15;;;;;;;3.55;0.55;;;;;;;;;;5054711;28;20053;-77
2021/12/02 05:01:41;;;;;;;4.18;0.80;;;;;;;;;;5044584;28;20050;-78
2021/12/02 05:04:09;;;;;;;3.63;0.68;;;;;;;;;;5063691;28;20080;-78
2021/12/02 05:06:35;;;;;;;3.53;0.43;;;;;;;;;;5073590;28;20052;-78
2021/12/02 05:09:02;;;;;;;2.85;0.47;;;;;;;;;;5067485;28;20061;-78
2021/12/02 05:11:28;;;;;;;3.00;0.55;;;;;;;;;;5068736;28;20053;-79
2021/12/02 05:13:55;;;;;;;7.85;0.90;;;;;;;;;;5069654;28;20053;-78
2021/12/02 05:16:21;;;;;;;3.50;0.50;;;;;;;;;;5070641;28;20143;-79
2021/12/02 05:18:48;;;;;;;2.70;0.55;;;;;;;;;;5070533;28;20189;-78
2021/12/02 05:21:14;;;;;;;4.90;0.60;;;;;;;;;;5070728;28;20520;-79
2021/12/02 05:23:41;;;;;;;4.95;0.40;;;;;;;;;;5070950;28;20143;-78
2021/12/02 05:26:07;;;;;;;6.60;0.55;;;;;;;;;;5068851;28;20057;-78
2021/12/02 05:28:34;;;;;;;4.50;0.70;;;;;;;;;;5070578;28;20143;-78
2021/12/02 05:31:00;;;;;;;12.25;0.82;;;;;;;;;;5069452;28;20080;-77
2021/12/02 05:33:27;;;;;;;1.98;0.50;;;;;;;;;;5069589;28;20049;-78
2021/12/02 05:35:53;;;;;;;4.03;0.47;;;;;;;;;;5062829;28;20546;-78
2021/12/02 05:38:20;;;;;;;3.00;0.60;;;;;;;;;;5069209;28;20064;-78
2021/12/02 05:40:46;;;;;;;5.35;0.70;;;;;;;;;;5077681;28;20049;-78
2021/12/02 05:43:12;;;;;;;8.13;0.70;;;;;;;;;;5069028;28;20062;-78
2021/12/02 05:45:39;;;;;;;2.85;0.70;;;;;;;;;;5070341;28;20060;-78
2021/12/02 05:48:05;;;;;;;2.90;0.75;;;;;;;;;;5068554;28;20053;-78
2021/12/02 05:50:32;;;;;;;4.85;0.75;;;;;;;;;;5068410;28;20057;-78
2021/12/02 05:52:58;;;;;;;3.80;0.70;;;;;;;;;;5068440;28;20470;-78
2021/12/02 05:55:24;;;;;;;6.13;0.60;;;;;;;;;;5068402;28;20577;-78
2021/12/02 05:57:51;;;;;;;4.63;0.65;;;;;;;;;;5069204;28;20569;-78
2021/12/02 06:00:17;;;;;;;2.70;0.63;;;;;;;;;;5070113;28;20083;-78
2021/12/02 06:02:45;;;;;;;4.85;0.65;;;;;;;;;;5065655;28;20099;-78
2021/12/02 06:05:17;;;;;;;4.03;0.47;;;;;;;;;;5061806;28;20532;-78
2021/12/02 06:07:44;;;;;;;4.35;0.50;;;;;;;;;;5066828;28;20052;-78
2021/12/02 06:10:11;;;;;;;2.20;0.60;;;;;;;;;;5066031;28;20405;-78
2021/12/02 06:12:37;;;;;;;1.45;0.50;;;;;;;;;;5050335;28;20567;-78
2021/12/02 06:15:04;;;;;;;3.63;0.68;;;;;;;;;;5053206;28;20045;-77
2021/12/02 06:17:32;;;;;;;3.63;0.80;;;;;;;;;;5068985;28;20088;-78
2021/12/02 06:19:59;;;;;;;4.45;0.82;;;;;;;;;;5059526;28;20044;-78
2021/12/02 06:22:25;;;;;;;3.78;1.02;;;;;;;;;;5068380;28;20092;-78
2021/12/02 06:25:16;;;;;;;5.97;0.93;;;;;;;;;;5069732;28;20106;-78
2021/12/02 06:27:45;;;;;;;4.80;0.80;;;;;;;;;;5062826;28;20049;-78
2021/12/02 06:30:12;;;;;;;5.97;1.20;;;;;;;;;;5070621;28;20107;-78
2021/12/02 06:32:38;;;;;;;5.22;0.77;;;;;;;;;;5068654;28;20072;-77
2021/12/02 06:35:06;;;;;;;5.72;1.10;;;;;;;;;;5061606;28;20131;-78
2021/12/02 06:37:32;;;;;;;8.13;1.00;;;;;;;;;;5068043;28;20107;-78
2021/12/02 06:39:58;;;;;;;6.82;1.20;;;;;;;;;;5063745;28;20142;-78
2021/12/02 06:42:25;;;;;;;4.28;0.98;;;;;;;;;;5069266;28;20049;-77
2021/12/02 06:44:51;;;;;;;5.43;1.10;;;;;;;;;;5069374;28;20111;-78
2021/12/02 06:47:20;;;;;;;4.22;1.30;;;;;;;;;;5071071;28;20597;-81
2021/12/02 06:49:46;;;;;;;4.93;1.58;;;;;;;;;;5070379;28;20052;-79
2021/12/02 06:52:15;;;;;;;6.20;1.73;;;;;;;;;;5071384;28;20131;-79
2021/12/02 06:54:41;;;;;;;5.82;1.50;;;;;;;;;;5069464;28;20053;-79
2021/12/02 06:57:07;;;;;;;4.57;1.27;;;;;;;;;;5068521;28;20064;-78
2021/12/02 06:59:38;;;;;;;6.03;1.10;;;;;;;;;;5070090;28;20053;-78
2021/12/02 07:02:04;;;;;;;5.18;1.20;;;;;;;;;;5067022;28;20553;-79
2021/12/02 07:04:31;;;;;;;4.03;1.10;;;;;;;;;;5069176;28;20048;-79
2021/12/02 07:06:57;;;;;;;3.42;1.08;;;;;;;;;;5070141;28;20053;-79
2021/12/02 07:09:23;;;;;;;3.30;1.17;;;;;;;;;;5068244;28;20115;-79
2021/12/02 07:11:50;;;;;;;9.32;1.02;;;;;;;;;;5059940;28;20085;-78
2021/12/02 07:14:17;;;;;;;5.85;1.33;;;;;;;;;;5051602;28;20049;-78
2021/12/02 07:16:44;;;;;;;3.45;1.00;;;;;;;;;;5060418;28;20057;-78
2021/12/02 07:19:13;;;;;;;8.98;1.23;;;;;;;;;;5068695;28;20049;-79
2021/12/02 07:21:40;;;;;;;7.75;1.50;;;;;;;;;;5066589;28;20135;-78
2021/12/02 07:24:08;;;;;;;4.60;1.10;;;;;;;;;;5066450;28;20108;-79
2021/12/02 07:26:36;;;;;;;5.00;1.33;;;;;;;;;;5067260;28;20095;-79
2021/12/02 07:29:02;;;;;;;6.75;2.15;;;;;;;;;;5063817;28;20053;-78
2021/12/02 07:31:33;;;;;;;8.50;1.92;;;;;;;;;;5067761;28;20072;-78
2021/12/02 07:34:01;;;;;;;7.32;1.38;;;;;;;;;;5064567;28;20486;-78
2021/12/02 07:36:28;;;;;;;4.00;1.25;;;;;;;;;;5051461;28;20103;-78
2021/12/02 07:38:55;;;;;;;3.47;1.02;;;;;;;;;;5067278;28;20110;-79
2021/12/02 07:41:22;;;;;;;4.50;1.00;;;;;;;;;;5065866;28;20049;-79
2021/12/02 07:43:48;;;;;;;5.18;0.95;;;;;;;;;;5060555;28;20558;-78
2021/12/02 07:46:14;;;;;;;5.22;0.90;;;;;;;;;;5066472;28;20092;-79
2021/12/02 07:48:41;;;;;;;6.55;0.93;;;;;;;;;;5068405;28;20057;-78
2021/12/02 07:51:09;;;;;;;5.75;1.13;;;;;;;;;;5063626;28;20107;-78
2021/12/02 07:53:35;;;;;;;2.95;0.82;;;;;;;;;;5066759;28;20075;-78
2021/12/02 07:56:03;;;;;;;4.93;0.82;;;;;;;;;;5071270;28;20231;-78
2021/12/02 07:58:30;;;;;;;6.30;1.10;;;;;;;;;;5066289;28;20049;-79
2021/12/02 08:01:01;;;;;;;7.05;1.15;;;;;;;;;;5066322;28;20416;-78
2021/12/02 08:03:29;;;;;;;;;;;;;;;;;;5066646;28;20897;-78
2021/12/02 08:05:55;;;;;;;2.35;0.70;;;;;;;;;;5065611;28;48624;-79
2021/12/02 08:08:22;;;;;;;5.40;0.77;;;;;;;;;;5065601;28;20092;-79
2021/12/02 08:10:50;;;;;;;8.07;1.00;;;;;;;;;;5062465;28;20053;-78
2021/12/02 08:13:17;;;;;;;6.00;1.00;;;;;;;;;;5063634;28;20134;-79
2021/12/02 08:15:44;;;;;;;4.82;1.05;;;;;;;;;;5070388;28;20049;-78
2021/12/02 08:18:10;;;;;;;4.55;1.30;;;;;;;;;;5060822;28;20561;-79
2021/12/02 08:20:37;;;;;;;4.75;1.30;;;;;;;;;;5082402;28;20056;-78
2021/12/02 08:23:03;;;;;;;7.70;1.15;;;;;;;;;;5087071;28;20053;-78
2021/12/02 08:25:31;;;;;;;4.93;1.17;;;;;;;;;;5062635;28;20053;-78
2021/12/02 08:28:01;;;;;;;4.18;1.08;;;;;;;;;;5074245;28;20061;-78
2021/12/02 08:30:29;;;;;;;2.80;0.77;;;;;;;;;;5074698;28;20884;-78
2021/12/02 08:32:56;;;;;;;3.08;0.80;;;;;;;;;;5069220;28;20049;-78
2021/12/02 08:35:23;;;;;;;3.95;1.00;;;;;;;;;;5068246;28;20103;-78
2021/12/02 08:37:52;;;;;;;5.32;1.65;;;;;;;;;;5062881;28;20059;-78
2021/12/02 08:40:22;;;;;;;5.50;1.30;;;;;;;;;;5067960;28;20107;-78
2021/12/02 08:42:49;;;;;;;5.20;1.63;;;;;;;;;;5067989;28;20045;-78
2021/12/02 08:45:15;;;;;;;4.97;1.15;;;;;;;;;;5068094;28;20299;-78
2021/12/02 08:47:45;;;;;;;3.88;0.90;;;;;;;;;;5067819;28;20052;-78
2021/12/02 08:50:13;;;;;;;3.25;0.80;;;;;;;;;;5065397;28;20115;-78
2021/12/02 08:52:39;;;;;;;4.22;0.95;;;;;;;;;;5068003;28;20103;-78
2021/12/02 08:55:06;;;;;;;4.30;1.20;;;;;;;;;;5063887;28;20058;-78
2021/12/02 08:57:44;;;;;;;5.53;1.10;;;;;;;;;;5060506;28;20056;-78
2021/12/02 09:00:12;;;;;;;6.85;1.38;;;;;;;;;;5065987;28;20055;-78
2021/12/02 09:02:38;;;;;;;4.95;1.20;;;;;;;;;;5051246;28;20108;-78
2021/12/02 09:05:06;;;;;;;4.05;1.10;;;;;;;;;;5065325;28;20051;-78
2021/12/02 09:07:32;;;;;;;4.70;0.88;;;;;;;;;;5051504;28;20061;-78
2021/12/02 09:09:59;;;;;;;7.07;1.00;;;;;;;;;;5065027;28;20049;-77
2021/12/02 09:12:25;;;;;;;4.38;1.20;;;;;;;;;;5077122;28;20049;-78
2021/12/02 09:14:52;;;;;;;5.95;1.63;;;;;;;;;;5068895;28;20049;-78
2021/12/02 09:17:18;;;;;;;4.25;1.35;;;;;;;;;;5064253;28;20057;-77
2021/12/02 09:19:44;;;;;;;6.40;1.58;;;;;;;;;;5068128;28;20049;-78
2021/12/02 09:22:11;;;;;;;7.38;0.85;;;;;;;;;;5075233;28;20103;-78
2021/12/02 09:24:39;;;;;;;3.63;0.90;;;;;;;;;;5056516;28;20053;-78
2021/12/02 09:27:06;;;;;;;7.30;1.08;;;;;;;;;;5070065;28;20060;-79
2021/12/02 09:29:32;;;;;;;4.40;0.90;;;;;;;;;;5073314;28;20076;-78
2021/12/02 09:31:59;;;;;;;3.90;0.95;;;;;;;;;;5080254;28;20088;-77
2021/12/02 09:34:28;;;;;;;5.90;1.55;;;;;;;;;;5068082;28;20057;-78
2021/12/02 09:36:55;;;;;;;8.45;1.25;;;;;;;;;;5068662;28;20096;-78
2021/12/02 09:39:29;;;;;;;7.47;1.40;;;;;;;;;;5076510;28;20049;-78
2021/12/02 09:41:56;;;;;;;4.07;0.82;;;;;;;;;;5067530;28;20041;-79
2021/12/02 09:44:24;;;;;;;3.63;1.00;;;;;;;;;;5079249;28;20140;-79
2021/12/02 09:46:50;;;;;;;6.32;1.00;;;;;;;;;;5076408;28;20064;-79
2021/12/02 09:49:17;;;;;;;8.45;0.80;;;;;;;;;;5069907;28;20148;-78
2021/12/02 09:54:25;;;;;;;3.30;0.80;;;;;;;;;;5071518;28;20545;-80
2021/12/02 09:56:53;;;;;;;6.30;0.85;;;;;;;;;;5066055;28;20076;-79
2021/12/02 09:59:26;;;;;;;3.15;0.90;;;;;;;;;;5057681;28;20057;-79
2021/12/02 10:02:02;;;;;;;2.95;0.75;;;;;;;;;;5072568;28;20152;-78
2021/12/02 10:04:29;;;;;;;3.63;0.90;;;;;;;;;;5073830;28;20057;-78
2021/12/02 10:07:07;;;;;;;4.07;0.90;;;;;;;;;;5072600;28;20045;-78
2021/12/02 10:09:51;;;;;;;2.25;0.65;;;;;;;;;;5083285;28;20106;-77
2021/12/02 10:12:21;;;;;;;7.53;0.88;;;;;;;;;;5073722;28;20504;-79
2021/12/02 10:14:57;;;;;;;4.60;0.90;;;;;;;;;;5070951;28;20053;-78
2021/12/02 10:17:37;;;;;;;4.07;0.75;;;;;;;;;;5085187;28;20053;-78
2021/12/02 10:20:45;;;;;;;5.15;0.90;;;;;;;;;;5069360;28;20037;-78
2021/12/02 10:23:15;;;;;;;4.97;1.20;;;;;;;;;;5071399;28;20056;-78
2021/12/02 10:25:49;;;;;;;3.38;0.90;;;;;;;;;;5074219;28;20847;-79
2021/12/02 10:28:16;;;;;;;3.20;0.73;;;;;;;;;;5090850;28;20115;-79
2021/12/02 10:30:44;;;;;;;4.65;0.80;;;;;;;;;;5052864;28;20116;-79
2021/12/02 10:33:12;;;;;;;2.05;0.60;;;;;;;;;;5059598;28;20041;-78
2021/12/02 10:35:44;;;;;;;5.47;0.70;;;;;;;;;;5067798;28;20057;-79
2021/12/02 10:38:30;;;;;;;3.33;0.68;;;;;;;;;;5073837;28;20866;-78
2021/12/02 10:41:00;;;;;;;3.38;0.60;;;;;;;;;;5075953;28;20061;-79
2021/12/02 10:43:27;;;;;;;2.22;0.70;;;;;;;;;;5072567;28;20045;-78
2021/12/02 10:46:11;;;;;;;4.97;0.93;;;;;;;;;;5078536;28;20118;-78
2021/12/02 10:48:45;;;;;;;2.95;0.60;;;;;;;;;;5078405;28;20894;-78
2021/12/02 10:51:32;;;;;;;2.35;0.50;;;;;;;;;;5074896;28;20105;-77
2021/12/02 10:53:59;;;;;;;1.08;0.40;;;;;;;;;;5073772;28;20115;-79
2021/12/02 10:56:35;;;;;;;5.63;0.85;;;;;;;;;;5072196;28;20362;-78
2021/12/02 10:59:20;;;;;;;1.95;0.55;;;;;;;;;;5086595;28;20056;-78
2021/12/02 11:01:47;;;;;;;4.18;0.60;;;;;;;;;;5073512;28;20115;-77
2021/12/02 11:04:14;;;;;;;3.00;0.50;;;;;;;;;;5067031;28;20131;-77
2021/12/02 11:06:44;;;;;;;3.22;0.70;;;;;;;;;;5067419;28;20519;-77
2021/12/02 11:09:24;;;;;;;3.10;0.63;;;;;;;;;;5066057;28;20578;-77
2021/12/02 11:12:09;;;;;;;4.65;0.93;;;;;;;;;;5051003;28;20581;-77
2021/12/02 11:14:38;;;;;;;2.92;0.82;;;;;;;;;;5069331;28;20111;-77
2021/12/02 11:17:15;;;;;;;2.35;0.60;;;;;;;;;;5068131;28;20056;-77
2021/12/02 11:19:48;;;;;;;1.63;0.60;;;;;;;;;;5077948;28;20594;-77
2021/12/02 11:22:20;;;;;;;4.65;0.55;;;;;;;;;;5072709;28;20053;-77
2021/12/02 11:24:48;;;;;;;1.90;0.50;;;;;;;;;;5082302;28;20594;-77
2021/12/02 11:27:23;;;;;;;1.98;0.60;;;;;;;;;;5066959;28;20049;-77
2021/12/02 11:29:53;;;;;;;2.95;0.77;;;;;;;;;;5076952;28;20535;-77
2021/12/02 11:32:28;;;;;;;3.65;0.70;;;;;;;;;;5067102;28;20135;-77
2021/12/02 11:34:58;;;;;;;3.53;0.90;;;;;;;;;;5057560;28;20049;-77
2021/12/02 11:37:25;;;;;;;2.15;0.73;;;;;;;;;;5050984;28;20472;-77
2021/12/02 11:39:53;;;;;;;2.33;0.90;;;;;;;;;;5064464;28;20507;-77
2021/12/02 11:42:20;;;;;;;4.07;1.00;;;;;;;;;;5067680;28;20061;-77
2021/12/02 11:44:46;;;;;;;2.97;0.70;;;;;;;;;;5066904;28;20057;-77
2021/12/02 11:47:13;;;;;;;3.67;0.90;;;;;;;;;;5074728;28;20056;-77
2021/12/02 11:49:40;;;;;;;4.22;0.90;;;;;;;;;;5065020;28;20049;-77
2021/12/02 11:52:07;;;;;;;4.15;0.98;;;;;;;;;;5056221;28;20053;-78
2021/12/02 11:54:34;;;;;;;2.72;1.02;;;;;;;;;;5066807;28;20089;-77
2021/12/02 11:57:00;;;;;;;2.20;0.75;;;;;;;;;;5064379;28;20053;-77
2021/12/02 11:59:27;;;;;;;2.50;0.75;;;;;;;;;;5066323;28;20127;-77
2021/12/02 12:01:54;;;;;;;2.92;0.90;;;;;;;;;;5058506;28;20045;-77
2021/12/02 12:04:21;;;;;;;1.55;0.60;;;;;;;;;;5065489;28;20056;-77
2021/12/02 12:06:53;;;;;;;3.33;0.80;;;;;;;;;;5074928;28;20593;-77
2021/12/02 12:09:21;;;;;;;2.40;0.80;;;;;;;;;;5062935;28;20053;-77
2021/12/02 12:11:49;;;;;;;3.58;0.80;;;;;;;;;;5066870;28;20056;-77
2021/12/02 12:14:19;;;;;;;2.47;0.85;;;;;;;;;;5064921;28;20079;-77
2021/12/02 12:16:47;;;;;;;3.13;0.90;;;;;;;;;;5065098;28;20099;-77
2021/12/02 12:19:18;;;;;;;3.38;1.10;;;;;;;;;;5062314;28;20088;-77
2021/12/02 12:21:51;;;;;;;5.63;1.40;;;;;;;;;;5061605;28;20905;-77
2021/12/02 12:24:37;;;;;;;4.68;1.38;;;;;;;;;;5062496;28;20092;-77
2021/12/02 12:27:11;;;;;;;4.70;1.35;;;;;;;;;;5062824;28;20527;-77
2021/12/02 12:29:37;;;;;;;5.05;1.30;;;;;;;;;;5060123;28;20102;-77
2021/12/02 12:32:12;;;;;;;2.85;1.10;;;;;;;;;;5065039;28;20201;-77
2021/12/02 12:37:25;;;;;;;3.05;1.20;;;;;;;;;;5056683;28;20080;-77
2021/12/02 12:40:11;;;;;;;5.00;1.17;;;;;;;;;;5054842;28;20053;-77
2021/12/02 12:42:39;;;;;;;2.85;1.27;;;;;;;;;;5058788;28;20588;-77
2021/12/02 12:45:07;;;;;;;4.93;1.33;;;;;;;;;;5064135;28;20142;-77
2021/12/02 12:47:49;;;;;;;2.80;1.20;;;;;;;;;;5064636;28;20111;-77
2021/12/02 12:50:21;;;;;;;5.03;1.30;;;;;;;;;;5074169;28;20052;-77
2021/12/02 12:53:13;;;;;;;5.25;1.48;;;;;;;;;;5068277;28;20057;-77
2021/12/02 12:55:41;;;;;;;4.95;1.38;;;;;;;;;;5048017;28;20053;-77
2021/12/02 12:58:12;;;;;;;5.03;1.60;;;;;;;;;;5056919;28;20562;-77
2021/12/02 13:00:43;;;;;;;4.13;1.65;;;;;;;;;;5063502;28;20537;-77
2021/12/02 13:03:18;;;;;;;4.75;1.65;;;;;;;;;;5065553;28;20053;-77
2021/12/02 13:05:50;;;;;;;6.10;1.52;;;;;;;;;;5064277;28;20053;-77
2021/12/02 13:08:17;;;;;;;4.80;1.48;;;;;;;;;;5060836;28;20997;-77
2021/12/02 13:10:51;;;;;;;4.10;1.13;;;;;;;;;;5059246;28;20050;-76
2021/12/02 13:13:26;;;;;;;4.78;1.60;;;;;;;;;;5061091;28;20114;-78
2021/12/02 13:15:53;;;;;;;4.60;1.45;;;;;;;;;;5065179;28;20053;-77
2021/12/02 13:18:31;;;;;;;4.78;1.55;;;;;;;;;;5065759;28;20053;-76
2021/12/02 13:20:58;;;;;;;4.50;1.70;;;;;;;;;;5065223;28;20064;-76
2021/12/02 13:23:26;;;;;;;6.60;1.70;;;;;;;;;;5064637;28;20135;-76
2021/12/02 13:25:54;;;;;;;5.13;1.50;;;;;;;;;;5065766;28;20080;-76
2021/12/02 13:28:26;;;;;;;6.10;1.70;;;;;;;;;;5064628;28;20053;-76
2021/12/02 13:30:55;;;;;;;5.05;1.73;;;;;;;;;;5064803;28;20061;-76
2021/12/02 13:33:39;;;;;;;4.40;1.92;;;;;;;;;;5069752;28;20055;-76
2021/12/02 13:36:06;;;;;;;4.20;1.90;;;;;;;;;;5060221;28;20159;-76
2021/12/02 13:38:33;;;;;;;9.75;2.42;;;;;;;;;;5065276;28;20203;-76
2021/12/02 13:41:13;;;;;;;7.45;2.00;;;;;;;;;;5068233;28;20483;-76
2021/12/02 13:43:50;;;;;;;6.00;2.20;;;;;;;;;;5064494;28;20142;-76
2021/12/02 13:46:16;;;;;;;6.70;2.08;;;;;;;;;;5067365;28;20529;-76
2021/12/02 13:48:53;;;;;;;4.43;1.77;;;;;;;;;;5057267;28;20152;-76
2021/12/02 13:54:22;;;;;;;4.65;1.90;;;;;;;;;;5066498;28;20500;-76
2021/12/02 13:56:49;;;;;;;6.97;2.03;;;;;;;;;;5067287;28;20057;-76
2021/12/02 13:59:22;;;;;;;7.22;2.17;;;;;;;;;;5063360;28;20059;-76
2021/12/02 14:01:53;;;;;;;5.93;1.88;;;;;;;;;;5078244;28;20567;-75
2021/12/02 14:04:20;;;;;;;6.47;2.03;;;;;;;;;;5069813;28;20053;-76
2021/12/02 14:06:46;;;;;;;6.47;2.20;;;;;;;;;;5069013;28;20135;-76
2021/12/02 14:09:17;;;;;;;6.72;1.85;;;;;;;;;;5070754;28;20057;-76
2021/12/02 14:11:45;;;;;;;6.85;2.00;;;;;;;;;;5060165;28;20115;-76
2021/12/02 14:14:18;;;;;;;5.30;1.60;;;;;;;;;;5050639;28;20100;-76
2021/12/02 14:17:05;;;;;;;7.10;2.13;;;;;;;;;;5067372;28;20053;-76
2021/12/02 14:19:32;;;;;;;4.90;1.65;;;;;;;;;;5069428;28;20095;-76
2021/12/02 14:21:58;;;;;;;6.47;2.38;;;;;;;;;;5067501;28;20053;-77
2021/12/02 14:24:24;;;;;;;6.45;1.95;;;;;;;;;;5066673;28;20115;-77
2021/12/02 14:26:51;;;;;;;5.82;1.98;;;;;;;;;;5072371;28;20585;-77
2021/12/02 14:29:17;;;;;;;6.72;1.73;;;;;;;;;;5077493;28;20084;-77
2021/12/02 14:31:43;;;;;;;7.18;2.00;;;;;;;;;;5067088;28;20048;-76
2021/12/02 14:34:15;;;;;;;6.38;2.00;;;;;;;;;;5066307;28;20110;-77
2021/12/02 14:36:44;;;;;;;6.10;2.33;;;;;;;;;;5067696;28;20530;-76
2021/12/02 14:39:12;;;;;;;5.03;2.00;;;;;;;;;;5067840;28;20052;-76
2021/12/02 14:41:44;;;;;;;6.75;1.90;;;;;;;;;;5067720;28;20176;-76
2021/12/02 14:44:11;;;;;;;5.47;1.80;;;;;;;;;;5069544;28;20106;-76
2021/12/02 14:46:45;;;;;;;7.70;2.40;;;;;;;;;;5067799;28;20052;-76
2021/12/02 14:49:12;;;;;;;7.10;2.38;;;;;;;;;;5068864;28;20087;-76
2021/12/02 14:52:05;;;;;;;5.30;1.70;;;;;;;;;;5068881;28;20111;-76
2021/12/02 14:54:37;;;;;;;6.30;1.92;;;;;;;;;;5051616;28;20561;-76
2021/12/02 14:57:24;;;;;;;4.57;1.92;;;;;;;;;;5048929;28;20123;-76
2021/12/02 14:59:56;;;;;;;5.50;1.73;;;;;;;;;;5068994;28;20064;-77
2021/12/02 15:02:31;;;;;;;5.68;1.75;;;;;;;;;;5079773;28;20111;-76
2021/12/02 15:05:00;;;;;;;5.82;1.67;;;;;;;;;;5067445;28;20053;-76
2021/12/02 15:07:28;;;;;;;5.20;1.70;;;;;;;;;;5067573;28;20053;-76
2021/12/02 15:10:03;;;;;;;6.28;1.98;;;;;;;;;;5067386;28;20700;-76
2021/12/02 15:12:35;;;;;;;4.78;1.85;;;;;;;;;;5067044;28;20049;-76
2021/12/02 15:15:09;;;;;;;6.28;1.67;;;;;;;;;;5066731;28;20563;-77
2021/12/02 15:17:51;;;;;;;7.22;1.77;;;;;;;;;;5066256;28;20053;-76